Time;durP1;ratioP1;P1;durP2;ratioP2;P2;SDS_P1;SDS_P2;PMS_P1;PMS_P2;Temp;Humidity;BMP_temperature;BMP_pressure;BME280_temperature;BME280_humidity;BME280_pressure;Samples;Min_cycle;Max_cycle;Signal;HPM_P1;HPM_P2
2022/08/09 00:01:59;;;;;;;2.95;1.77;;;18.90;62.00;;;;;;9181298;19;20048;-69
2022/08/09 00:05:04;;;;;;;2.25;1.40;;;18.90;62.10;;;;;;9180994;19;20019;-68
2022/08/09 00:08:32;;;;;;;2.28;1.80;;;18.80;62.10;;;;;;9182589;19;20447;-68
2022/08/09 00:11:37;;;;;;;3.67;1.73;;;18.80;62.30;;;;;;9174593;19;20018;-67
2022/08/09 00:15:02;;;;;;;4.70;1.60;;;18.80;62.40;;;;;;9182603;19;20025;-67
2022/08/09 00:18:11;;;;;;;5.30;1.92;;;18.70;62.40;;;;;;9180909;19;20054;-69
2022/08/09 00:21:18;;;;;;;3.88;1.75;;;18.70;62.60;;;;;;9180455;19;20015;-68
2022/08/09 00:24:30;;;;;;;2.53;2.00;;;18.70;62.60;;;;;;9182323;19;20026;-68
2022/08/09 00:27:35;;;;;;;4.40;2.08;;;18.70;62.80;;;;;;9180734;19;20022;-67
2022/08/09 00:30:47;;;;;;;5.22;2.08;;;18.60;62.80;;;;;;9180609;19;20022;-67
2022/08/09 00:33:53;;;;;;;4.53;2.15;;;18.60;62.90;;;;;;9180366;19;20471;-67
2022/08/09 00:36:58;;;;;;;6.32;2.17;;;18.60;63.10;;;;;;9180264;19;20023;-67
2022/08/09 00:40:06;;;;;;;5.00;2.03;;;18.60;63.10;;;;;;9181409;19;20007;-68
2022/08/09 00:43:21;;;;;;;5.97;2.30;;;18.50;63.20;;;;;;9182260;19;20023;-67
2022/08/09 00:46:46;;;;;;;5.80;2.10;;;18.50;63.20;;;;;;9182104;19;20488;-69
2022/08/09 00:50:00;;;;;;;7.57;2.30;;;18.50;63.30;;;;;;9181533;19;20015;-68
2022/08/09 00:53:07;;;;;;;7.78;2.45;;;18.50;63.40;;;;;;9180177;19;20018;-68
2022/08/09 00:56:18;;;;;;;5.10;2.25;;;18.40;63.40;;;;;;9179549;19;20086;-67
2022/08/09 00:59:23;;;;;;;4.20;2.13;;;18.40;63.50;;;;;;9178713;19;20364;-67
2022/08/09 01:02:50;;;;;;;4.95;2.28;;;18.40;63.60;;;;;;9178369;19;20633;-67
2022/08/09 01:06:04;;;;;;;5.38;3.58;;;18.40;63.70;;;;;;9177181;19;20029;-67
2022/08/09 01:09:28;;;;;;;6.88;2.53;;;18.30;63.80;;;;;;9172840;19;20026;-67
2022/08/09 01:12:48;;;;;;;7.15;2.70;;;18.30;63.80;;;;;;9180784;19;20022;-67
2022/08/09 01:15:58;;;;;;;4.70;2.65;;;18.30;63.90;;;;;;9181137;19;20163;-66
2022/08/09 01:19:15;;;;;;;7.00;2.50;;;18.30;64.00;;;;;;9180525;19;20018;-66
2022/08/09 01:23:08;;;;;;;8.50;2.58;;;18.20;64.10;;;;;;9179967;19;20028;-66
2022/08/09 01:27:07;;;;;;;9.15;2.80;;;18.20;64.30;;;;;;9179971;19;20019;-67
2022/08/09 01:30:13;;;;;;;4.07;2.80;;;18.20;64.50;;;;;;9176318;19;20038;-67
2022/08/09 01:33:41;;;;;;;7.78;3.22;;;18.20;64.20;;;;;;9178916;19;20018;-67
2022/08/09 01:36:49;;;;;;;10.10;3.30;;;18.10;64.30;;;;;;9179786;19;20014;-66
2022/08/09 01:39:58;;;;;;;7.97;3.40;;;18.10;64.40;;;;;;9178061;19;20026;-66
2022/08/09 01:43:07;;;;;;;8.80;3.67;;;18.10;64.50;;;;;;9177871;19;20015;-66
2022/08/09 01:46:13;;;;;;;7.20;3.53;;;18.10;64.70;;;;;;9177681;19;20493;-66
2022/08/09 01:49:31;;;;;;;8.25;3.50;;;18.10;64.70;;;;;;9177385;19;20045;-66
2022/08/09 01:52:45;;;;;;;4.30;2.75;;;18.00;64.70;;;;;;9177078;19;20019;-66
2022/08/09 01:55:56;;;;;;;8.02;3.63;;;18.00;64.90;;;;;;9179242;19;20029;-66
2022/08/09 01:59:10;;;;;;;5.18;3.80;;;18.00;65.00;;;;;;9178923;19;20035;-66
2022/08/09 02:02:22;;;;;;;7.22;3.42;;;18.00;65.20;;;;;;9176681;19;20015;-66
2022/08/09 02:05:35;;;;;;;9.50;3.47;;;18.00;65.80;;;;;;9175329;19;20472;-66
2022/08/09 02:09:01;;;;;;;4.90;3.33;;;17.90;65.10;;;;;;9177400;19;20007;-66
2022/08/09 02:12:09;;;;;;;6.85;3.33;;;17.90;65.10;;;;;;9174222;19;20027;-65
2022/08/09 02:15:22;;;;;;;6.97;3.58;;;17.90;65.30;;;;;;9176315;19;20018;-66
2022/08/09 02:18:34;;;;;;;8.70;3.37;;;17.90;65.50;;;;;;9176147;19;20006;-66
2022/08/09 02:21:42;;;;;;;5.00;3.70;;;17.90;65.40;;;;;;9181569;19;20018;-66
2022/08/09 02:24:52;;;;;;;6.40;3.60;;;17.90;65.50;;;;;;9187921;19;20014;-67
2022/08/09 02:28:01;;;;;;;5.07;3.13;;;17.80;65.50;;;;;;9187961;19;20014;-66
2022/08/09 02:31:16;;;;;;;6.28;3.80;;;17.80;65.60;;;;;;9187839;19;20718;-67
2022/08/09 02:34:27;;;;;;;5.45;3.88;;;17.80;66.50;;;;;;9185522;19;20061;-67
2022/08/09 02:37:59;;;;;;;7.22;3.63;;;17.80;65.60;;;;;;9184904;19;20056;-68
2022/08/09 02:41:10;;;;;;;8.80;4.00;;;17.80;65.80;;;;;;9184953;19;20480;-66
2022/08/09 02:44:19;;;;;;;13.00;3.90;;;17.70;65.80;;;;;;9184370;19;20435;-66
2022/08/09 02:47:39;;;;;;;10.45;3.97;;;17.70;65.80;;;;;;9185252;19;20019;-66
2022/08/09 02:51:03;;;;;;;7.28;3.90;;;17.70;65.90;;;;;;9184243;19;20022;-66
2022/08/09 02:54:11;;;;;;;8.07;3.33;;;17.60;65.80;;;;;;9182789;19;20018;-67
2022/08/09 02:57:20;;;;;;;8.43;3.97;;;17.60;66.00;;;;;;9186001;19;20103;-66
2022/08/09 03:00:28;;;;;;;7.10;4.00;;;17.60;66.00;;;;;;9182967;19;20013;-66
2022/08/09 03:03:37;;;;;;;5.82;4.00;;;17.60;66.10;;;;;;9185626;19;20077;-67
2022/08/09 03:07:04;;;;;;;4.28;3.63;;;17.50;66.20;;;;;;9184206;19;20014;-68
2022/08/09 03:10:19;;;;;;;7.50;4.63;;;17.50;66.20;;;;;;9181043;19;20487;-67
2022/08/09 03:13:25;;;;;;;7.25;4.65;;;17.50;66.30;;;;;;9185120;19;20357;-67
2022/08/09 03:16:49;;;;;;;9.23;4.82;;;17.50;66.40;;;;;;9184836;19;20018;-67
2022/08/09 03:20:00;;;;;;;7.68;4.00;;;17.40;66.40;;;;;;9183307;19;20029;-66
2022/08/09 03:23:16;;;;;;;6.55;4.15;;;17.40;66.60;;;;;;9185354;19;20346;-66
2022/08/09 03:26:29;;;;;;;8.40;4.30;;;17.40;66.60;;;;;;9183946;19;20006;-67
2022/08/09 03:29:37;;;;;;;8.25;4.38;;;17.40;66.70;;;;;;9184525;19;20022;-66
2022/08/09 03:33:04;;;;;;;9.77;3.75;;;17.40;66.70;;;;;;9183075;19;20449;-67
2022/08/09 03:36:19;;;;;;;9.98;4.05;;;17.30;66.70;;;;;;9182139;19;20492;-67
2022/08/09 03:39:30;;;;;;;8.52;4.45;;;17.30;66.90;;;;;;9182706;19;20403;-68
2022/08/09 03:42:43;;;;;;;11.55;4.75;;;17.30;66.90;;;;;;9183883;19;20747;-66
2022/08/09 03:45:48;;;;;;;8.23;4.22;;;17.30;67.00;;;;;;9183464;19;20010;-68
2022/08/09 03:49:14;;;;;;;7.38;3.95;;;17.20;67.00;;;;;;9183612;19;20085;-66
2022/08/09 03:52:27;;;;;;;8.38;4.78;;;17.20;67.10;;;;;;9185155;19;20015;-67
2022/08/09 03:55:33;;;;;;;11.10;5.07;;;17.20;67.20;;;;;;9179531;19;20018;-66
2022/08/09 03:58:44;;;;;;;11.85;4.90;;;17.20;67.20;;;;;;9181495;19;20053;-68
2022/08/09 04:01:55;;;;;;;7.00;4.63;;;17.20;67.30;;;;;;9183101;19;20048;-67
2022/08/09 04:05:04;;;;;;;9.88;5.05;;;17.20;67.40;;;;;;9182377;19;20451;-66
2022/08/09 04:08:32;;;;;;;8.02;4.25;;;17.20;67.40;;;;;;9181397;19;20507;-67
2022/08/09 04:11:56;;;;;;;6.85;4.55;;;17.10;67.50;;;;;;9177921;19;20014;-66
2022/08/09 04:15:01;;;;;;;10.48;4.90;;;17.10;67.70;;;;;;9181902;19;20021;-65
2022/08/09 04:18:21;;;;;;;11.95;5.07;;;17.10;67.40;;;;;;9182716;19;20013;-67
2022/08/09 04:21:28;;;;;;;11.15;5.03;;;17.10;67.50;;;;;;9180583;19;20010;-67
2022/08/09 04:24:42;;;;;;;7.30;4.53;;;17.10;67.60;;;;;;9182663;19;20502;-69
2022/08/09 04:27:48;;;;;;;8.48;4.97;;;17.10;67.70;;;;;;9181612;19;20018;-66
2022/08/09 04:30:53;;;;;;;10.88;4.70;;;17.00;67.60;;;;;;9177922;19;20011;-67
2022/08/09 04:33:59;;;;;;;7.72;4.68;;;17.00;67.70;;;;;;9180412;19;20015;-67
2022/08/09 04:37:04;;;;;;;9.95;4.78;;;17.00;67.80;;;;;;9180340;19;20022;-69
2022/08/09 04:40:13;;;;;;;9.32;4.90;;;17.00;67.90;;;;;;9181217;19;20025;-68
2022/08/09 04:43:24;;;;;;;6.97;5.00;;;17.00;68.00;;;;;;9178138;19;20018;-67
2022/08/09 04:46:29;;;;;;;8.77;4.97;;;17.00;67.90;;;;;;9180293;19;20488;-65
2022/08/09 04:49:56;;;;;;;8.57;4.47;;;17.00;68.00;;;;;;9180804;19;20471;-65
2022/08/09 04:53:04;;;;;;;7.82;4.15;;;17.00;68.00;;;;;;9177277;19;20018;-66
2022/08/09 04:56:18;;;;;;;10.63;4.97;;;17.00;68.10;;;;;;9173379;19;20110;-68
2022/08/09 04:59:29;;;;;;;;;;;17.00;68.20;;;;;;9175988;19;20022;-67
2022/08/09 05:02:34;;;;;;;9.55;4.53;;;16.90;67.90;;;;;;9177361;19;19955;-71
2022/08/09 05:05:39;;;;;;;11.57;4.60;;;16.90;67.80;;;;;;9172653;19;20384;-68
2022/08/09 05:09:05;;;;;;;9.95;3.80;;;16.90;68.00;;;;;;9177807;19;20025;-70
2022/08/09 05:12:25;;;;;;;5.72;3.88;;;16.90;68.10;;;;;;9175400;19;20018;-67
2022/08/09 05:15:30;;;;;;;7.47;4.32;;;16.90;68.50;;;;;;9175450;19;20019;-65
2022/08/09 05:18:52;;;;;;;8.90;4.15;;;16.90;68.90;;;;;;9175570;19;20078;-68
2022/08/09 05:22:03;;;;;;;10.05;3.70;;;16.90;68.30;;;;;;9174920;19;20986;-67
2022/08/09 05:25:09;;;;;;;5.68;3.85;;;16.90;68.40;;;;;;9178542;19;20019;-66
2022/08/09 05:28:17;;;;;;;8.50;3.75;;;16.90;68.50;;;;;;9175479;19;20618;-65
2022/08/09 05:31:22;;;;;;;8.98;4.15;;;16.90;68.70;;;;;;9175164;19;20015;-68
2022/08/09 05:34:47;;;;;;;8.02;4.18;;;16.90;68.70;;;;;;9173406;19;20011;-67
2022/08/09 05:37:52;;;;;;;5.85;3.88;;;16.90;68.70;;;;;;9175086;19;20417;-66
2022/08/09 05:40:57;;;;;;;6.70;3.70;;;16.90;68.80;;;;;;9175089;19;20023;-69
2022/08/09 05:44:05;;;;;;;9.38;4.25;;;17.00;69.10;;;;;;9173794;19;20038;-69
2022/08/09 05:47:12;;;;;;;7.43;3.67;;;17.00;69.10;;;;;;9174597;19;20041;-68
2022/08/09 05:50:18;;;;;;;8.23;4.10;;;17.10;69.20;;;;;;9179459;19;20006;-63
2022/08/09 05:53:43;;;;;;;7.97;4.05;;;17.10;69.30;;;;;;9180103;19;20015;-63
2022/08/09 05:57:01;;;;;;;6.85;3.80;;;17.20;69.30;;;;;;9182782;19;20030;-62
2022/08/09 06:00:14;;;;;;;7.78;3.72;;;17.20;69.30;;;;;;9188604;19;20757;-64
2022/08/09 06:03:19;;;;;;;6.47;3.63;;;17.30;69.40;;;;;;9189533;19;20056;-63
2022/08/09 06:06:26;;;;;;;6.00;3.38;;;17.40;69.30;;;;;;9181289;19;20361;-64
2022/08/09 06:09:31;;;;;;;8.30;3.53;;;17.50;69.40;;;;;;9180395;19;20022;-63
2022/08/09 06:12:58;;;;;;;7.43;3.50;;;17.60;69.40;;;;;;9184459;19;20025;-63
2022/08/09 06:16:19;;;;;;;5.53;2.55;;;17.70;69.30;;;;;;9182862;19;20015;-62
2022/08/09 06:19:24;;;;;;;5.32;2.60;;;17.80;69.30;;;;;;9187160;19;20527;-63
2022/08/09 06:22:33;;;;;;;5.95;2.75;;;18.00;69.30;;;;;;9187143;19;20029;-63
2022/08/09 06:25:39;;;;;;;5.15;2.63;;;18.10;69.20;;;;;;9184149;19;20082;-62
2022/08/09 06:28:47;;;;;;;4.32;2.42;;;18.20;69.10;;;;;;9183042;19;20025;-63
2022/08/09 06:31:57;;;;;;;4.95;2.03;;;18.40;69.20;;;;;;9184278;19;20010;-62
2022/08/09 06:35:13;;;;;;;5.50;2.45;;;18.50;69.10;;;;;;9179958;19;20018;-62
2022/08/09 06:38:19;;;;;;;4.57;2.20;;;18.70;69.00;;;;;;9181824;19;20063;-63
2022/08/09 06:41:42;;;;;;;4.20;2.50;;;18.80;68.90;;;;;;9185149;19;20611;-62
2022/08/09 06:45:10;;;;;;;5.95;2.40;;;19.00;68.90;;;;;;9179864;19;20112;-64
2022/08/09 06:48:39;;;;;;;4.10;2.40;;;19.20;68.70;;;;;;9182436;19;20014;-63
2022/08/09 06:51:46;;;;;;;5.00;2.35;;;19.40;68.60;;;;;;9180002;19;20018;-64
2022/08/09 06:54:52;;;;;;;7.80;2.47;;;19.50;68.50;;;;;;9183911;19;20072;-64
2022/08/09 06:57:58;;;;;;;10.38;2.47;;;19.60;68.40;;;;;;9178928;19;20015;-62
2022/08/09 07:01:08;;;;;;;4.43;2.08;;;19.80;68.30;;;;;;9185604;19;20013;-65
2022/08/09 07:04:21;;;;;;;2.03;1.83;;;20.00;68.20;;;;;;9181412;19;20094;-63
2022/08/09 07:07:28;;;;;;;7.07;1.80;;;20.10;68.00;;;;;;9179444;19;20057;-63
2022/08/09 07:10:53;;;;;;;4.85;2.03;;;20.30;67.80;;;;;;9176179;19;20010;-64
2022/08/09 07:13:58;;;;;;;7.88;1.50;;;20.40;67.60;;;;;;9182833;19;20022;-63
2022/08/09 07:17:09;;;;;;;5.07;1.85;;;20.50;67.40;;;;;;9178591;19;20026;-64
2022/08/09 07:20:18;;;;;;;8.65;1.95;;;20.70;67.30;;;;;;9184226;19;20480;-63
2022/08/09 07:23:24;;;;;;;4.88;1.50;;;20.80;67.10;;;;;;9184153;19;20044;-66
2022/08/09 07:26:33;;;;;;;3.35;1.38;;;20.90;66.90;;;;;;9181619;19;20021;-63
2022/08/09 07:29:40;;;;;;;6.03;1.42;;;21.10;66.80;;;;;;9183850;19;20022;-64
2022/08/09 07:32:47;;;;;;;3.03;1.38;;;21.20;67.30;;;;;;9182334;19;20019;-64
2022/08/09 07:35:58;;;;;;;2.63;1.13;;;21.40;66.50;;;;;;9177913;19;20078;-64
2022/08/09 07:39:05;;;;;;;4.30;1.40;;;21.50;66.20;;;;;;9179148;19;20003;-64
2022/08/09 07:42:15;;;;;;;3.33;1.20;;;21.70;66.10;;;;;;9179964;19;20021;-63
2022/08/09 07:45:24;;;;;;;3.00;1.25;;;21.80;65.90;;;;;;9182281;19;20361;-64
2022/08/09 07:48:44;;;;;;;7.15;1.10;;;22.00;65.60;;;;;;9183152;19;20485;-63
2022/08/09 07:51:59;;;;;;;3.28;1.02;;;22.10;65.30;;;;;;9181979;19;20333;-64
2022/08/09 07:55:11;;;;;;;4.30;0.82;;;22.30;65.10;;;;;;9179373;19;20422;-63
2022/08/09 07:58:17;;;;;;;2.92;1.00;;;22.40;64.80;;;;;;9176129;19;20381;-64
2022/08/09 08:01:22;;;;;;;1.33;0.85;;;22.50;64.50;;;;;;9179077;19;20018;-62
2022/08/09 08:04:46;;;;;;;3.35;0.93;;;22.70;64.30;;;;;;9178607;19;20118;-65
2022/08/09 08:07:56;;;;;;;2.28;1.30;;;22.80;64.20;;;;;;9178252;19;20014;-66
2022/08/09 08:11:21;;;;;;;5.13;1.00;;;22.90;64.00;;;;;;9169699;19;20015;-66
2022/08/09 08:14:49;;;;;;;5.32;0.80;;;23.10;63.80;;;;;;9172981;19;20018;-63
2022/08/09 08:17:54;;;;;;;3.45;1.85;;;23.30;63.70;;;;;;9167663;19;20702;-64
2022/08/09 08:21:05;;;;;;;1.98;0.90;;;23.30;63.40;;;;;;9170372;19;20586;-63
2022/08/09 08:24:14;;;;;;;1.67;0.90;;;23.50;63.20;;;;;;9171427;19;20103;-64
2022/08/09 08:27:20;;;;;;;7.10;0.80;;;23.60;63.00;;;;;;9174040;19;20025;-64
2022/08/09 08:30:31;;;;;;;6.53;1.27;;;23.70;62.90;;;;;;9175663;19;20049;-63
2022/08/09 08:33:39;;;;;;;2.20;0.70;;;23.90;62.80;;;;;;9171157;19;20373;-64
2022/08/09 08:36:59;;;;;;;3.22;1.10;;;24.00;62.50;;;;;;9169715;19;20039;-64
2022/08/09 08:40:09;;;;;;;5.35;1.40;;;24.20;62.30;;;;;;9169810;19;20033;-64
2022/08/09 08:43:15;;;;;;;2.20;1.02;;;24.30;62.00;;;;;;9174494;19;20010;-62
2022/08/09 08:46:22;;;;;;;5.10;1.45;;;24.40;61.90;;;;;;9176032;19;20062;-63
2022/08/09 08:49:39;;;;;;;2.92;1.30;;;24.60;61.70;;;;;;9173651;19;21148;-64
2022/08/09 08:52:53;;;;;;;3.83;1.10;;;24.70;61.60;;;;;;9177004;19;20015;-64
2022/08/09 08:56:07;;;;;;;1.25;0.80;;;24.90;61.40;;;;;;9174760;19;20017;-63
2022/08/09 08:59:31;;;;;;;5.00;1.15;;;25.00;61.10;;;;;;9175360;19;20014;-64
2022/08/09 09:02:52;;;;;;;3.67;1.20;;;25.20;61.00;;;;;;9174744;19;20018;-63
2022/08/09 09:05:59;;;;;;;4.57;1.17;;;25.40;60.80;;;;;;9171472;19;20443;-64
2022/08/09 09:09:11;;;;;;;2.92;0.75;;;25.50;60.50;;;;;;9172342;19;20018;-64
2022/08/09 09:12:39;;;;;;;1.85;0.70;;;25.70;60.30;;;;;;9178670;19;20057;-64
2022/08/09 09:15:45;;;;;;;2.40;1.02;;;25.80;60.00;;;;;;9176588;19;20511;-64
2022/08/09 09:18:57;;;;;;;4.13;0.75;;;26.00;59.90;;;;;;9175763;19;20093;-63
2022/08/09 09:22:25;;;;;;;3.22;1.00;;;26.10;59.60;;;;;;9179293;19;20015;-64
2022/08/09 09:25:46;;;;;;;2.03;0.82;;;26.30;59.50;;;;;;9180244;19;20035;-63
2022/08/09 09:29:13;;;;;;;3.05;0.65;;;26.40;59.20;;;;;;9179423;19;20010;-63
2022/08/09 09:32:25;;;;;;;2.92;0.85;;;26.60;59.00;;;;;;9194956;19;20022;-64
2022/08/09 09:35:53;;;;;;;6.03;0.70;;;26.70;58.60;;;;;;9197828;19;20014;-64
2022/08/09 09:39:12;;;;;;;1.10;0.60;;;26.80;58.10;;;;;;9195290;19;20354;-63
2022/08/09 09:42:26;;;;;;;2.85;0.70;;;26.90;58.10;;;;;;9192508;19;20022;-64
2022/08/09 09:45:49;;;;;;;1.02;0.60;;;27.00;57.70;;;;;;9191028;19;20018;-64
2022/08/09 09:49:20;;;;;;;3.35;0.57;;;27.10;57.30;;;;;;9194635;19;20400;-64
2022/08/09 09:52:39;;;;;;;2.30;0.45;;;27.10;57.40;;;;;;9195223;19;20022;-64
2022/08/09 09:55:59;;;;;;;1.80;0.70;;;27.30;57.30;;;;;;9196723;19;20029;-64
2022/08/09 09:59:09;;;;;;;7.78;0.88;;;27.40;57.00;;;;;;9188937;19;20054;-65
2022/08/09 10:02:25;;;;;;;1.15;0.32;;;27.40;56.70;;;;;;9195015;19;20018;-65
2022/08/09 10:05:30;;;;;;;0.70;0.30;;;27.50;56.50;;;;;;9194472;19;20048;-65
2022/08/09 10:09:07;;;;;;;1.98;0.73;;;27.60;56.30;;;;;;9188041;19;20025;-64
2022/08/09 10:12:29;;;;;;;1.13;0.55;;;27.70;56.00;;;;;;9190714;19;20015;-64
2022/08/09 10:15:51;;;;;;;3.30;0.57;;;27.80;56.50;;;;;;9184560;19;20123;-63
2022/08/09 10:19:19;;;;;;;6.95;1.02;;;27.90;55.30;;;;;;9185860;19;20022;-66
2022/08/09 10:22:36;;;;;;;1.15;0.50;;;28.00;55.50;;;;;;9187058;19;20043;-64
2022/08/09 10:25:46;;;;;;;2.03;0.50;;;28.20;55.30;;;;;;9184897;19;20014;-63
2022/08/09 10:29:15;;;;;;;0.88;0.40;;;28.30;55.30;;;;;;9185948;19;20035;-65
2022/08/09 10:32:41;;;;;;;2.85;0.80;;;28.40;55.00;;;;;;9183485;19;20018;-67
2022/08/09 10:35:54;;;;;;;3.65;0.50;;;28.40;54.70;;;;;;9182229;19;20022;-66
2022/08/09 10:39:06;;;;;;;4.15;0.65;;;28.50;54.40;;;;;;9182821;19;20078;-65
2022/08/09 10:42:24;;;;;;;1.25;0.50;;;28.60;54.40;;;;;;9178568;19;20014;-65
2022/08/09 10:45:35;;;;;;;1.70;0.60;;;28.70;54.20;;;;;;9173417;19;20041;-65
2022/08/09 10:49:10;;;;;;;2.97;0.50;;;28.70;54.00;;;;;;9174292;19;20039;-64
2022/08/09 10:52:36;;;;;;;5.80;0.50;;;28.80;53.60;;;;;;9173318;19;20025;-65
2022/08/09 10:55:46;;;;;;;2.65;0.60;;;28.90;53.40;;;;;;9173420;19;20086;-65
2022/08/09 10:59:30;;;;;;;2.17;0.70;;;28.90;53.50;;;;;;9172683;19;20019;-63
2022/08/09 11:02:56;;;;;;;2.67;0.70;;;29.00;52.90;;;;;;9173440;19;20019;-65
2022/08/09 11:06:24;;;;;;;1.67;0.40;;;29.00;53.10;;;;;;9172478;19;20346;-65
2022/08/09 11:09:53;;;;;;;2.15;0.65;;;29.00;52.80;;;;;;9171309;19;21882;-66
2022/08/09 11:13:24;;;;;;;3.97;0.70;;;29.10;52.30;;;;;;9174467;19;20107;-65
2022/08/09 11:16:49;;;;;;;4.03;0.70;;;29.10;52.30;;;;;;9174327;19;20488;-64
2022/08/09 11:20:00;;;;;;;4.78;0.43;;;29.20;52.60;;;;;;9173037;19;20025;-66
2022/08/09 11:23:25;;;;;;;2.63;0.70;;;29.30;52.30;;;;;;9176417;19;20025;-64
2022/08/09 11:26:43;;;;;;;1.70;0.60;;;29.30;52.10;;;;;;9171298;19;20474;-64
2022/08/09 11:29:59;;;;;;;3.95;0.50;;;29.40;51.50;;;;;;9174968;19;20350;-64
2022/08/09 11:33:26;;;;;;;1.42;0.57;;;29.40;51.60;;;;;;9175860;19;20014;-64
2022/08/09 11:36:43;;;;;;;1.60;0.57;;;29.50;51.30;;;;;;9173788;19;20057;-64
2022/08/09 11:40:06;;;;;;;2.28;0.55;;;29.50;51.00;;;;;;9170697;19;20026;-64
2022/08/09 11:43:16;;;;;;;;;;;29.60;50.90;;;;;;9178165;19;20026;-65
2022/08/09 11:46:23;;;;;;;1.02;0.50;;;29.60;51.50;;;;;;9173288;19;19930;-65
2022/08/09 11:50:00;;;;;;;2.55;0.60;;;29.70;51.40;;;;;;9176339;19;20053;-64
2022/08/09 11:53:27;;;;;;;1.48;0.40;;;29.70;50.80;;;;;;9175332;19;20018;-65
2022/08/09 11:56:52;;;;;;;3.55;0.68;;;29.70;50.90;;;;;;9180452;19;20014;-65
2022/08/09 12:00:06;;;;;;;2.13;0.57;;;29.70;50.80;;;;;;9176211;19;20022;-64
2022/08/09 12:03:21;;;;;;;2.28;0.50;;;29.80;50.50;;;;;;9176847;19;20018;-65
2022/08/09 12:06:53;;;;;;;1.10;0.40;;;29.80;50.40;;;;;;9181547;19;20041;-65
2022/08/09 12:10:01;;;;;;;8.93;0.60;;;29.80;50.00;;;;;;9174784;19;20010;-64
2022/08/09 12:13:06;;;;;;;1.05;0.40;;;29.80;50.10;;;;;;9176914;19;20082;-65
2022/08/09 12:16:38;;;;;;;1.50;0.65;;;29.80;50.00;;;;;;9179136;19;20014;-65
2022/08/09 12:19:44;;;;;;;1.63;0.50;;;29.80;49.60;;;;;;9177419;19;20472;-65
2022/08/09 12:22:57;;;;;;;1.73;0.50;;;29.80;49.70;;;;;;9174701;19;20589;-64
2022/08/09 12:26:02;;;;;;;1.65;0.50;;;29.80;49.50;;;;;;9181498;19;20022;-66
2022/08/09 12:29:08;;;;;;;0.52;0.50;;;29.90;49.50;;;;;;9175708;19;20018;-65
2022/08/09 12:32:35;;;;;;;1.38;0.60;;;29.90;49.30;;;;;;9177925;19;20044;-65
2022/08/09 12:35:45;;;;;;;0.82;0.40;;;29.90;49.00;;;;;;9179261;19;20022;-65
2022/08/09 12:38:56;;;;;;;2.50;0.63;;;30.00;49.00;;;;;;9179793;19;20025;-65
2022/08/09 12:42:09;;;;;;;1.38;0.55;;;30.00;48.80;;;;;;9181195;19;20014;-65
2022/08/09 12:45:21;;;;;;;2.08;0.52;;;30.00;48.40;;;;;;9181239;19;20380;-65
2022/08/09 12:48:45;;;;;;;0.93;0.38;;;30.00;48.50;;;;;;9180915;19;20035;-66
2022/08/09 12:52:00;;;;;;;2.13;0.60;;;30.00;48.40;;;;;;9176593;19;21835;-64
2022/08/09 12:55:09;;;;;;;0.65;0.30;;;29.90;48.10;;;;;;9180755;19;20010;-66
2022/08/09 12:58:34;;;;;;;2.28;0.70;;;29.90;48.20;;;;;;9174330;19;20021;-65
2022/08/09 13:01:49;;;;;;;3.05;0.55;;;30.00;48.20;;;;;;9170600;19;20575;-65
2022/08/09 13:05:04;;;;;;;0.70;0.50;;;30.00;48.00;;;;;;9164527;19;20022;-65
2022/08/09 13:08:14;;;;;;;3.63;0.80;;;29.90;47.70;;;;;;9169159;19;20022;-64
2022/08/09 13:11:30;;;;;;;0.95;0.70;;;29.90;47.80;;;;;;9165574;19;20029;-64
2022/08/09 13:14:36;;;;;;;4.75;0.40;;;29.90;47.70;;;;;;9175195;19;20026;-64
2022/08/09 13:17:52;;;;;;;1.00;0.68;;;29.90;47.80;;;;;;9170283;19;20083;-65
2022/08/09 13:21:24;;;;;;;0.82;0.60;;;29.90;47.80;;;;;;9170517;19;20693;-65
2022/08/09 13:24:59;;;;;;;3.17;0.73;;;29.90;47.40;;;;;;9165769;19;20025;-67
2022/08/09 13:28:12;;;;;;;1.80;0.50;;;30.00;47.60;;;;;;9170648;19;20025;-64
2022/08/09 13:31:56;;;;;;;2.05;0.70;;;29.90;47.50;;;;;;9176077;19;20029;-65
2022/08/09 13:35:24;;;;;;;1.55;0.80;;;29.90;47.20;;;;;;9175159;19;20381;-65
2022/08/09 13:38:41;;;;;;;1.85;0.52;;;29.90;47.50;;;;;;9173387;19;20018;-66
2022/08/09 13:42:03;;;;;;;2.03;0.90;;;29.90;47.30;;;;;;9175409;19;20031;-64
2022/08/09 13:45:11;;;;;;;1.15;0.50;;;29.90;47.40;;;;;;9172242;19;20022;-64
2022/08/09 13:48:16;;;;;;;1.20;0.90;;;29.90;47.20;;;;;;9173208;19;20015;-65
2022/08/09 13:51:21;;;;;;;2.03;0.70;;;29.90;47.20;;;;;;9175032;19;20026;-66
2022/08/09 13:54:33;;;;;;;2.75;0.52;;;29.90;47.10;;;;;;9176965;19;20029;-64
2022/08/09 13:57:41;;;;;;;1.95;0.70;;;29.90;46.90;;;;;;9171553;19;20022;-65
2022/08/09 14:00:46;;;;;;;1.95;0.50;;;29.90;46.90;;;;;;9171001;19;20014;-65
2022/08/09 14:03:56;;;;;;;1.05;0.70;;;29.90;46.90;;;;;;9172994;19;20022;-64
2022/08/09 14:07:06;;;;;;;2.15;0.60;;;29.90;47.40;;;;;;9173831;19;20571;-65
2022/08/09 14:10:16;;;;;;;1.88;0.60;;;29.90;46.60;;;;;;9168891;19;20024;-66
2022/08/09 14:13:41;;;;;;;2.08;0.30;;;29.90;46.40;;;;;;9173534;19;20026;-68
2022/08/09 14:17:06;;;;;;;1.45;0.38;;;29.90;46.50;;;;;;9177882;19;20022;-67
2022/08/09 14:20:16;;;;;;;1.98;0.70;;;29.90;46.50;;;;;;9180253;19;20073;-67
2022/08/09 14:23:22;;;;;;;1.65;0.40;;;29.80;46.40;;;;;;9183206;19;20774;-67
2022/08/09 14:26:50;;;;;;;3.85;0.60;;;29.80;46.40;;;;;;9182969;19;20018;-65
2022/08/09 14:29:57;;;;;;;1.75;0.40;;;29.80;46.40;;;;;;9181412;19;20032;-65
2022/08/09 14:33:22;;;;;;;1.88;0.45;;;29.80;46.50;;;;;;9181878;19;20021;-64
2022/08/09 14:36:27;;;;;;;1.95;0.70;;;29.80;46.40;;;;;;9180335;19;20011;-64
2022/08/09 14:39:46;;;;;;;0.77;0.35;;;29.80;46.30;;;;;;9181387;19;20010;-64
2022/08/09 14:42:55;;;;;;;1.60;0.60;;;29.80;46.20;;;;;;9179101;19;20078;-65
2022/08/09 14:46:01;;;;;;;2.15;0.70;;;29.80;46.10;;;;;;9179153;19;20018;-64
2022/08/09 14:49:26;;;;;;;1.13;0.57;;;29.70;46.10;;;;;;9181323;19;20017;-65
2022/08/09 14:52:38;;;;;;;1.77;0.50;;;29.70;46.20;;;;;;9181575;19;20784;-65
2022/08/09 14:55:45;;;;;;;1.17;0.50;;;29.60;46.20;;;;;;9180506;19;20103;-66
2022/08/09 14:58:56;;;;;;;2.45;1.40;;;29.60;46.20;;;;;;9181866;19;20052;-64
2022/08/09 15:02:01;;;;;;;28.50;25.15;;;29.60;46.20;;;;;;9178027;19;20077;-65
2022/08/09 15:05:10;;;;;;;19.27;14.15;;;29.60;46.20;;;;;;9170876;19;20035;-66
2022/08/09 15:08:19;;;;;;;2.83;0.50;;;29.50;46.20;;;;;;9174596;19;20023;-65
2022/08/09 15:11:27;;;;;;;5.43;0.38;;;29.50;46.20;;;;;;9168331;19;20025;-63
2022/08/09 15:14:36;;;;;;;4.60;0.73;;;29.40;46.20;;;;;;9173164;19;20431;-65
2022/08/09 15:17:42;;;;;;;6.88;0.50;;;29.30;46.10;;;;;;9177172;19;20023;-64
2022/08/09 15:20:53;;;;;;;3.60;0.60;;;29.30;46.20;;;;;;9178465;19;20761;-65
2022/08/09 15:24:18;;;;;;;0.90;0.50;;;29.30;46.20;;;;;;9174203;19;20026;-67
2022/08/09 15:27:31;;;;;;;0.50;0.40;;;29.20;46.10;;;;;;9177868;19;20049;-65
2022/08/09 15:30:59;;;;;;;0.38;0.30;;;29.20;46.10;;;;;;9178619;19;20022;-64
2022/08/09 15:34:18;;;;;;;1.13;0.52;;;29.10;46.10;;;;;;9182377;19;20535;-64
2022/08/09 15:37:40;;;;;;;0.65;0.60;;;29.00;46.20;;;;;;9179637;19;20511;-65
2022/08/09 15:41:05;;;;;;;0.45;0.45;;;29.00;46.20;;;;;;9177689;19;20045;-65
2022/08/09 15:44:13;;;;;;;2.65;0.50;;;28.90;46.10;;;;;;9182058;19;20391;-64
2022/08/09 15:47:26;;;;;;;5.78;0.77;;;28.90;46.10;;;;;;9181264;19;20022;-64
2022/08/09 15:50:51;;;;;;;1.85;0.60;;;28.80;46.00;;;;;;9180407;19;20010;-66
2022/08/09 15:53:59;;;;;;;1.17;0.50;;;28.80;46.20;;;;;;9182602;19;20019;-65
2022/08/09 15:57:16;;;;;;;0.90;0.57;;;28.70;46.10;;;;;;9177965;19;20038;-70
2022/08/09 16:00:38;;;;;;;1.75;0.60;;;28.60;46.00;;;;;;9179699;19;20384;-66
2022/08/09 16:03:47;;;;;;;0.63;0.35;;;28.60;46.10;;;;;;9180569;19;20030;-66
2022/08/09 16:06:54;;;;;;;2.67;0.85;;;28.60;46.10;;;;;;9172313;19;20026;-68
2022/08/09 16:10:00;;;;;;;0.63;0.40;;;28.50;46.10;;;;;;9170241;19;20018;-68
2022/08/09 16:13:12;;;;;;;3.58;0.65;;;28.50;46.10;;;;;;9173398;19;20464;-66
2022/08/09 16:16:38;;;;;;;1.60;0.50;;;28.50;46.10;;;;;;9170862;19;20013;-68
2022/08/09 16:19:53;;;;;;;1.27;0.52;;;28.40;46.10;;;;;;9170296;19;20018;-68
2022/08/09 16:23:15;;;;;;;1.75;0.88;;;28.40;46.10;;;;;;9173314;19;20018;-66
2022/08/09 16:26:25;;;;;;;2.67;0.70;;;28.30;46.10;;;;;;9173401;19;20019;-68
2022/08/09 16:29:39;;;;;;;0.40;0.40;;;28.30;46.20;;;;;;9169780;19;20099;-65
2022/08/09 16:36:15;;;;;;;0.65;0.60;;;28.20;46.10;;;;;;9172093;19;20490;-63
2022/08/09 16:39:22;;;;;;;3.28;0.70;;;28.10;46.10;;;;;;9172025;19;20029;-66
2022/08/09 16:42:30;;;;;;;4.90;0.57;;;28.00;46.10;;;;;;9170671;19;20018;-67
2022/08/09 16:45:35;;;;;;;3.53;0.70;;;28.00;46.20;;;;;;9176666;19;20480;-67
2022/08/09 16:48:48;;;;;;;1.00;0.57;;;27.90;46.30;;;;;;9170163;19;20023;-69
2022/08/09 16:52:08;;;;;;;2.85;0.77;;;27.90;46.40;;;;;;9171731;19;20018;-68
2022/08/09 16:55:14;;;;;;;3.40;0.75;;;27.90;46.50;;;;;;9171908;19;20050;-68
2022/08/09 16:58:22;;;;;;;0.70;0.30;;;27.80;46.40;;;;;;9173418;19;20029;-70